sensor_id;sensor_type;location;lat;lon;timestamp;P1;durP1;ratioP1;P2;durP2;ratioP2
20721;SDS011;10522;52.198;9.890;2023-04-03T00:00:13;5.53;;;1.90;;
20721;SDS011;10522;52.198;9.890;2023-04-03T00:02:39;5.77;;;1.93;;
20721;SDS011;10522;52.198;9.890;2023-04-03T00:05:05;2.60;;;1.57;;
20721;SDS011;10522;52.198;9.890;2023-04-03T00:07:32;5.30;;;2.07;;
20721;SDS011;10522;52.198;9.890;2023-04-03T00:09:57;7.33;;;1.57;;
20721;SDS011;10522;52.198;9.890;2023-04-03T00:12:23;4.60;;;1.40;;
20721;SDS011;10522;52.198;9.890;2023-04-03T00:14:49;7.30;;;1.40;;
20721;SDS011;10522;52.198;9.890;2023-04-03T00:17:14;5.40;;;1.93;;
20721;SDS011;10522;52.198;9.890;2023-04-03T00:19:40;5.73;;;1.40;;
20721;SDS011;10522;52.198;9.890;2023-04-03T00:22:05;5.27;;;1.30;;
20721;SDS011;10522;52.198;9.890;2023-04-03T00:24:31;4.43;;;1.80;;
20721;SDS011;10522;52.198;9.890;2023-04-03T00:26:56;5.80;;;1.77;;
20721;SDS011;10522;52.198;9.890;2023-04-03T00:29:22;5.90;;;1.60;;
20721;SDS011;10522;52.198;9.890;2023-04-03T00:31:48;4.87;;;1.63;;
20721;SDS011;10522;52.198;9.890;2023-04-03T00:34:13;4.90;;;1.70;;
20721;SDS011;10522;52.198;9.890;2023-04-03T00:36:39;4.97;;;1.30;;
20721;SDS011;10522;52.198;9.890;2023-04-03T00:39:04;5.57;;;1.67;;
20721;SDS011;10522;52.198;9.890;2023-04-03T00:41:30;2.03;;;1.40;;
20721;SDS011;10522;52.198;9.890;2023-04-03T00:43:57;4.60;;;1.60;;
20721;SDS011;10522;52.198;9.890;2023-04-03T00:46:22;4.50;;;2.30;;
20721;SDS011;10522;52.198;9.890;2023-04-03T00:48:48;6.70;;;1.77;;
20721;SDS011;10522;52.198;9.890;2023-04-03T00:51:23;8.20;;;1.57;;
20721;SDS011;10522;52.198;9.890;2023-04-03T00:56:19;5.83;;;1.57;;
20721;SDS011;10522;52.198;9.890;2023-04-03T00:58:49;6.50;;;2.33;;
20721;SDS011;10522;52.198;9.890;2023-04-03T01:01:20;5.90;;;1.67;;
20721;SDS011;10522;52.198;9.890;2023-04-03T01:03:49;5.73;;;1.80;;
20721;SDS011;10522;52.198;9.890;2023-04-03T01:06:16;4.13;;;1.47;;
20721;SDS011;10522;52.198;9.890;2023-04-03T01:08:44;4.83;;;1.57;;
20721;SDS011;10522;52.198;9.890;2023-04-03T01:11:12;5.20;;;1.53;;
20721;SDS011;10522;52.198;9.890;2023-04-03T01:13:38;4.13;;;1.83;;
20721;SDS011;10522;52.198;9.890;2023-04-03T01:16:04;4.07;;;1.87;;
20721;SDS011;10522;52.198;9.890;2023-04-03T01:18:31;2.93;;;1.33;;
20721;SDS011;10522;52.198;9.890;2023-04-03T01:21:05;2.50;;;1.20;;
20721;SDS011;10522;52.198;9.890;2023-04-03T01:26:21;3.03;;;1.80;;
20721;SDS011;10522;52.198;9.890;2023-04-03T01:28:47;6.57;;;2.43;;
20721;SDS011;10522;52.198;9.890;2023-04-03T01:31:27;7.57;;;1.83;;
20721;SDS011;10522;52.198;9.890;2023-04-03T01:34:05;4.37;;;1.70;;
20721;SDS011;10522;52.198;9.890;2023-04-03T01:36:31;5.10;;;1.77;;
20721;SDS011;10522;52.198;9.890;2023-04-03T01:38:58;4.77;;;1.90;;
20721;SDS011;10522;52.198;9.890;2023-04-03T01:41:24;4.73;;;2.07;;
20721;SDS011;10522;52.198;9.890;2023-04-03T01:43:51;5.27;;;1.57;;
20721;SDS011;10522;52.198;9.890;2023-04-03T01:46:17;6.27;;;1.80;;
20721;SDS011;10522;52.198;9.890;2023-04-03T01:48:44;5.27;;;1.60;;
20721;SDS011;10522;52.198;9.890;2023-04-03T01:51:10;4.13;;;1.67;;
20721;SDS011;10522;52.198;9.890;2023-04-03T01:53:36;2.97;;;1.60;;
20721;SDS011;10522;52.198;9.890;2023-04-03T01:56:01;7.37;;;1.50;;
20721;SDS011;10522;52.198;9.890;2023-04-03T01:58:27;3.30;;;2.00;;
20721;SDS011;10522;52.198;9.890;2023-04-03T02:00:53;5.57;;;1.60;;
20721;SDS011;10522;52.198;9.890;2023-04-03T02:03:19;5.37;;;1.53;;
20721;SDS011;10522;52.198;9.890;2023-04-03T02:05:45;5.63;;;1.60;;
20721;SDS011;10522;52.198;9.890;2023-04-03T02:08:11;2.90;;;1.63;;
20721;SDS011;10522;52.198;9.890;2023-04-03T02:10:36;6.57;;;2.10;;
20721;SDS011;10522;52.198;9.890;2023-04-03T02:13:02;3.73;;;1.73;;
20721;SDS011;10522;52.198;9.890;2023-04-03T02:15:28;5.30;;;2.47;;
20721;SDS011;10522;52.198;9.890;2023-04-03T02:17:54;4.07;;;2.00;;
20721;SDS011;10522;52.198;9.890;2023-04-03T02:20:20;4.33;;;1.90;;
20721;SDS011;10522;52.198;9.890;2023-04-03T02:22:45;4.67;;;1.70;;
20721;SDS011;10522;52.198;9.890;2023-04-03T02:25:11;6.43;;;1.57;;
20721;SDS011;10522;52.198;9.890;2023-04-03T02:27:37;2.57;;;1.57;;
20721;SDS011;10522;52.198;9.890;2023-04-03T02:30:03;5.10;;;1.60;;
20721;SDS011;10522;52.198;9.890;2023-04-03T02:32:30;4.37;;;1.50;;
20721;SDS011;10522;52.198;9.890;2023-04-03T02:34:56;4.47;;;1.50;;
20721;SDS011;10522;52.198;9.890;2023-04-03T02:37:21;1.83;;;1.57;;
20721;SDS011;10522;52.198;9.890;2023-04-03T02:39:47;8.17;;;2.03;;
20721;SDS011;10522;52.198;9.890;2023-04-03T02:42:13;5.03;;;1.80;;
20721;SDS011;10522;52.198;9.890;2023-04-03T02:44:38;4.83;;;1.50;;
20721;SDS011;10522;52.198;9.890;2023-04-03T02:47:04;5.77;;;1.77;;
20721;SDS011;10522;52.198;9.890;2023-04-03T02:49:30;6.63;;;1.97;;
20721;SDS011;10522;52.198;9.890;2023-04-03T02:51:56;8.60;;;2.23;;
20721;SDS011;10522;52.198;9.890;2023-04-03T02:54:22;6.07;;;1.83;;
20721;SDS011;10522;52.198;9.890;2023-04-03T02:56:48;3.03;;;1.93;;
20721;SDS011;10522;52.198;9.890;2023-04-03T02:59:14;6.40;;;1.90;;
20721;SDS011;10522;52.198;9.890;2023-04-03T03:01:40;7.33;;;2.80;;
20721;SDS011;10522;52.198;9.890;2023-04-03T03:04:06;6.30;;;2.73;;
20721;SDS011;10522;52.198;9.890;2023-04-03T03:06:31;4.17;;;1.70;;
20721;SDS011;10522;52.198;9.890;2023-04-03T03:08:57;9.17;;;1.90;;
20721;SDS011;10522;52.198;9.890;2023-04-03T03:11:23;5.73;;;1.93;;
20721;SDS011;10522;52.198;9.890;2023-04-03T03:13:48;4.10;;;1.73;;
20721;SDS011;10522;52.198;9.890;2023-04-03T03:16:14;5.83;;;1.90;;
20721;SDS011;10522;52.198;9.890;2023-04-03T03:18:40;9.30;;;2.00;;
20721;SDS011;10522;52.198;9.890;2023-04-03T03:21:06;3.27;;;1.70;;
20721;SDS011;10522;52.198;9.890;2023-04-03T03:23:31;5.43;;;1.47;;
20721;SDS011;10522;52.198;9.890;2023-04-03T03:25:59;2.97;;;1.40;;
20721;SDS011;10522;52.198;9.890;2023-04-03T03:28:26;5.50;;;1.70;;
20721;SDS011;10522;52.198;9.890;2023-04-03T03:30:52;5.60;;;2.03;;
20721;SDS011;10522;52.198;9.890;2023-04-03T03:33:17;3.97;;;1.63;;
20721;SDS011;10522;52.198;9.890;2023-04-03T03:35:44;3.73;;;1.70;;
20721;SDS011;10522;52.198;9.890;2023-04-03T03:38:10;2.33;;;1.50;;
20721;SDS011;10522;52.198;9.890;2023-04-03T03:40:35;3.83;;;2.00;;
20721;SDS011;10522;52.198;9.890;2023-04-03T03:43:01;7.97;;;1.70;;
20721;SDS011;10522;52.198;9.890;2023-04-03T03:45:27;3.70;;;1.70;;
20721;SDS011;10522;52.198;9.890;2023-04-03T03:47:53;6.30;;;1.90;;
20721;SDS011;10522;52.198;9.890;2023-04-03T03:50:18;3.37;;;1.50;;
20721;SDS011;10522;52.198;9.890;2023-04-03T03:52:44;3.33;;;1.90;;
20721;SDS011;10522;52.198;9.890;2023-04-03T03:55:10;5.13;;;1.97;;
20721;SDS011;10522;52.198;9.890;2023-04-03T03:57:35;4.07;;;2.13;;
20721;SDS011;10522;52.198;9.890;2023-04-03T04:00:01;4.03;;;1.50;;
20721;SDS011;10522;52.198;9.890;2023-04-03T04:02:28;4.37;;;2.00;;
20721;SDS011;10522;52.198;9.890;2023-04-03T04:04:54;4.23;;;1.97;;
20721;SDS011;10522;52.198;9.890;2023-04-03T04:07:20;4.03;;;1.97;;
20721;SDS011;10522;52.198;9.890;2023-04-03T04:09:45;5.80;;;2.07;;
20721;SDS011;10522;52.198;9.890;2023-04-03T04:12:11;4.50;;;2.03;;
20721;SDS011;10522;52.198;9.890;2023-04-03T04:14:36;2.90;;;1.50;;
20721;SDS011;10522;52.198;9.890;2023-04-03T04:17:02;8.50;;;2.40;;
20721;SDS011;10522;52.198;9.890;2023-04-03T04:19:28;6.53;;;1.97;;
20721;SDS011;10522;52.198;9.890;2023-04-03T04:21:53;3.47;;;2.03;;
20721;SDS011;10522;52.198;9.890;2023-04-03T04:24:19;4.43;;;1.87;;
20721;SDS011;10522;52.198;9.890;2023-04-03T04:26:45;3.30;;;2.17;;
20721;SDS011;10522;52.198;9.890;2023-04-03T04:29:11;5.13;;;1.97;;
20721;SDS011;10522;52.198;9.890;2023-04-03T04:31:36;2.80;;;1.90;;
20721;SDS011;10522;52.198;9.890;2023-04-03T04:34:02;3.43;;;1.77;;
20721;SDS011;10522;52.198;9.890;2023-04-03T04:36:27;6.83;;;2.30;;
20721;SDS011;10522;52.198;9.890;2023-04-03T04:38:53;5.63;;;2.00;;
20721;SDS011;10522;52.198;9.890;2023-04-03T04:41:22;3.77;;;1.80;;
20721;SDS011;10522;52.198;9.890;2023-04-03T04:43:48;5.33;;;2.23;;
20721;SDS011;10522;52.198;9.890;2023-04-03T04:46:14;7.17;;;2.63;;
20721;SDS011;10522;52.198;9.890;2023-04-03T04:48:40;4.43;;;1.70;;
20721;SDS011;10522;52.198;9.890;2023-04-03T04:51:06;4.47;;;2.40;;
20721;SDS011;10522;52.198;9.890;2023-04-03T04:53:32;6.40;;;2.50;;
20721;SDS011;10522;52.198;9.890;2023-04-03T04:55:57;4.20;;;2.47;;
20721;SDS011;10522;52.198;9.890;2023-04-03T04:58:23;8.10;;;2.70;;
20721;SDS011;10522;52.198;9.890;2023-04-03T05:00:49;4.63;;;2.57;;
20721;SDS011;10522;52.198;9.890;2023-04-03T05:03:15;5.37;;;2.20;;
20721;SDS011;10522;52.198;9.890;2023-04-03T05:05:40;8.27;;;2.40;;
20721;SDS011;10522;52.198;9.890;2023-04-03T05:08:06;2.97;;;2.17;;
20721;SDS011;10522;52.198;9.890;2023-04-03T05:10:33;4.80;;;1.97;;
20721;SDS011;10522;52.198;9.890;2023-04-03T05:12:59;3.13;;;1.83;;
20721;SDS011;10522;52.198;9.890;2023-04-03T05:15:25;6.43;;;1.83;;
20721;SDS011;10522;52.198;9.890;2023-04-03T05:17:50;5.07;;;2.27;;
20721;SDS011;10522;52.198;9.890;2023-04-03T05:20:16;8.43;;;2.57;;
20721;SDS011;10522;52.198;9.890;2023-04-03T05:22:41;7.40;;;1.80;;
20721;SDS011;10522;52.198;9.890;2023-04-03T05:25:07;7.33;;;2.23;;
20721;SDS011;10522;52.198;9.890;2023-04-03T05:27:33;5.70;;;2.00;;
20721;SDS011;10522;52.198;9.890;2023-04-03T05:29:59;6.40;;;2.47;;
20721;SDS011;10522;52.198;9.890;2023-04-03T05:32:24;7.20;;;1.90;;
20721;SDS011;10522;52.198;9.890;2023-04-03T05:34:52;7.07;;;2.00;;
20721;SDS011;10522;52.198;9.890;2023-04-03T05:37:18;5.63;;;2.60;;
20721;SDS011;10522;52.198;9.890;2023-04-03T05:39:44;8.93;;;2.30;;
20721;SDS011;10522;52.198;9.890;2023-04-03T05:42:10;5.83;;;2.07;;
20721;SDS011;10522;52.198;9.890;2023-04-03T05:44:36;5.47;;;2.13;;
20721;SDS011;10522;52.198;9.890;2023-04-03T05:47:02;5.13;;;2.50;;
20721;SDS011;10522;52.198;9.890;2023-04-03T05:49:28;9.30;;;2.17;;
20721;SDS011;10522;52.198;9.890;2023-04-03T05:51:54;4.30;;;2.30;;
20721;SDS011;10522;52.198;9.890;2023-04-03T05:54:23;5.87;;;1.93;;
20721;SDS011;10522;52.198;9.890;2023-04-03T05:56:50;5.50;;;2.53;;
20721;SDS011;10522;52.198;9.890;2023-04-03T05:59:16;4.30;;;2.03;;
20721;SDS011;10522;52.198;9.890;2023-04-03T06:01:43;8.13;;;2.67;;
20721;SDS011;10522;52.198;9.890;2023-04-03T06:04:08;5.50;;;2.70;;
20721;SDS011;10522;52.198;9.890;2023-04-03T06:06:51;9.37;;;2.20;;
20721;SDS011;10522;52.198;9.890;2023-04-03T06:09:20;7.70;;;2.63;;
20721;SDS011;10522;52.198;9.890;2023-04-03T06:11:48;4.37;;;2.10;;
20721;SDS011;10522;52.198;9.890;2023-04-03T06:14:13;9.17;;;2.03;;
20721;SDS011;10522;52.198;9.890;2023-04-03T06:16:39;5.67;;;2.07;;
20721;SDS011;10522;52.198;9.890;2023-04-03T06:19:06;6.40;;;2.10;;
20721;SDS011;10522;52.198;9.890;2023-04-03T06:21:35;5.87;;;2.13;;
20721;SDS011;10522;52.198;9.890;2023-04-03T06:24:01;4.97;;;1.63;;
20721;SDS011;10522;52.198;9.890;2023-04-03T06:26:27;4.07;;;2.73;;
20721;SDS011;10522;52.198;9.890;2023-04-03T06:28:53;7.53;;;2.33;;
20721;SDS011;10522;52.198;9.890;2023-04-03T06:31:19;10.17;;;2.03;;
20721;SDS011;10522;52.198;9.890;2023-04-03T06:33:45;7.27;;;2.30;;
20721;SDS011;10522;52.198;9.890;2023-04-03T06:36:11;7.67;;;2.30;;
20721;SDS011;10522;52.198;9.890;2023-04-03T06:38:37;5.13;;;2.37;;
20721;SDS011;10522;52.198;9.890;2023-04-03T06:41:03;7.53;;;2.73;;
20721;SDS011;10522;52.198;9.890;2023-04-03T06:43:28;5.10;;;2.47;;
20721;SDS011;10522;52.198;9.890;2023-04-03T06:45:56;6.50;;;3.03;;
20721;SDS011;10522;52.198;9.890;2023-04-03T06:48:21;12.47;;;2.50;;
20721;SDS011;10522;52.198;9.890;2023-04-03T06:50:47;7.90;;;2.57;;
20721;SDS011;10522;52.198;9.890;2023-04-03T06:53:13;10.63;;;2.40;;
20721;SDS011;10522;52.198;9.890;2023-04-03T06:55:39;8.70;;;2.43;;
20721;SDS011;10522;52.198;9.890;2023-04-03T06:58:06;12.73;;;2.40;;
20721;SDS011;10522;52.198;9.890;2023-04-03T07:00:31;4.87;;;2.37;;
20721;SDS011;10522;52.198;9.890;2023-04-03T07:02:57;5.33;;;2.67;;
20721;SDS011;10522;52.198;9.890;2023-04-03T07:05:23;9.80;;;2.73;;
20721;SDS011;10522;52.198;9.890;2023-04-03T07:07:49;4.07;;;2.30;;
20721;SDS011;10522;52.198;9.890;2023-04-03T07:10:16;5.47;;;2.53;;
20721;SDS011;10522;52.198;9.890;2023-04-03T07:12:41;3.40;;;1.97;;
20721;SDS011;10522;52.198;9.890;2023-04-03T07:15:10;5.27;;;2.50;;
20721;SDS011;10522;52.198;9.890;2023-04-03T07:17:39;9.23;;;3.20;;
20721;SDS011;10522;52.198;9.890;2023-04-03T07:20:05;8.00;;;2.40;;
20721;SDS011;10522;52.198;9.890;2023-04-03T07:22:32;8.77;;;2.20;;
20721;SDS011;10522;52.198;9.890;2023-04-03T07:24:59;6.07;;;2.70;;
20721;SDS011;10522;52.198;9.890;2023-04-03T07:27:25;6.90;;;2.47;;
20721;SDS011;10522;52.198;9.890;2023-04-03T07:29:50;4.00;;;2.13;;
20721;SDS011;10522;52.198;9.890;2023-04-03T07:32:16;5.27;;;2.00;;
20721;SDS011;10522;52.198;9.890;2023-04-03T07:34:42;7.33;;;2.57;;
20721;SDS011;10522;52.198;9.890;2023-04-03T07:37:08;9.03;;;2.27;;
20721;SDS011;10522;52.198;9.890;2023-04-03T07:39:34;9.97;;;2.93;;
20721;SDS011;10522;52.198;9.890;2023-04-03T07:42:00;10.80;;;2.30;;
20721;SDS011;10522;52.198;9.890;2023-04-03T07:44:26;9.33;;;2.40;;
20721;SDS011;10522;52.198;9.890;2023-04-03T07:46:53;9.37;;;2.17;;
20721;SDS011;10522;52.198;9.890;2023-04-03T07:49:20;8.30;;;2.33;;
20721;SDS011;10522;52.198;9.890;2023-04-03T07:51:48;6.97;;;2.20;;
20721;SDS011;10522;52.198;9.890;2023-04-03T07:54:14;9.03;;;2.67;;
20721;SDS011;10522;52.198;9.890;2023-04-03T07:56:40;11.37;;;2.53;;
20721;SDS011;10522;52.198;9.890;2023-04-03T07:59:07;6.70;;;2.00;;
20721;SDS011;10522;52.198;9.890;2023-04-03T08:01:33;8.10;;;2.03;;
20721;SDS011;10522;52.198;9.890;2023-04-03T08:03:59;6.33;;;2.53;;
20721;SDS011;10522;52.198;9.890;2023-04-03T08:06:25;9.53;;;2.23;;
20721;SDS011;10522;52.198;9.890;2023-04-03T08:08:51;5.43;;;2.10;;
20721;SDS011;10522;52.198;9.890;2023-04-03T08:11:17;5.20;;;1.63;;
20721;SDS011;10522;52.198;9.890;2023-04-03T08:13:43;5.37;;;1.70;;
20721;SDS011;10522;52.198;9.890;2023-04-03T08:16:10;5.90;;;2.23;;
20721;SDS011;10522;52.198;9.890;2023-04-03T08:18:38;8.10;;;2.17;;
20721;SDS011;10522;52.198;9.890;2023-04-03T08:21:13;4.60;;;1.70;;
20721;SDS011;10522;52.198;9.890;2023-04-03T08:23:39;7.03;;;1.97;;
20721;SDS011;10522;52.198;9.890;2023-04-03T08:26:07;6.07;;;1.63;;
20721;SDS011;10522;52.198;9.890;2023-04-03T08:28:41;6.30;;;2.47;;
20721;SDS011;10522;52.198;9.890;2023-04-03T08:31:09;7.73;;;1.60;;
20721;SDS011;10522;52.198;9.890;2023-04-03T08:33:37;4.40;;;2.00;;
20721;SDS011;10522;52.198;9.890;2023-04-03T08:36:04;4.13;;;1.50;;
20721;SDS011;10522;52.198;9.890;2023-04-03T08:38:31;4.87;;;2.03;;
20721;SDS011;10522;52.198;9.890;2023-04-03T08:44:10;9.90;;;2.10;;
20721;SDS011;10522;52.198;9.890;2023-04-03T08:46:56;5.07;;;2.00;;
20721;SDS011;10522;52.198;9.890;2023-04-03T08:49:44;5.80;;;1.70;;
20721;SDS011;10522;52.198;9.890;2023-04-03T08:55:07;6.70;;;1.83;;
20721;SDS011;10522;52.198;9.890;2023-04-03T08:57:44;3.80;;;1.77;;
20721;SDS011;10522;52.198;9.890;2023-04-03T09:00:16;5.60;;;1.40;;
20721;SDS011;10522;52.198;9.890;2023-04-03T09:02:53;5.30;;;1.70;;
20721;SDS011;10522;52.198;9.890;2023-04-03T09:05:28;2.90;;;1.00;;
20721;SDS011;10522;52.198;9.890;2023-04-03T09:08:04;4.37;;;2.13;;
20721;SDS011;10522;52.198;9.890;2023-04-03T09:10:39;3.90;;;1.43;;
20721;SDS011;10522;52.198;9.890;2023-04-03T09:13:09;5.57;;;1.70;;
20721;SDS011;10522;52.198;9.890;2023-04-03T09:15:46;3.20;;;0.97;;
20721;SDS011;10522;52.198;9.890;2023-04-03T09:18:16;6.83;;;1.10;;
20721;SDS011;10522;52.198;9.890;2023-04-03T09:20:49;2.27;;;1.40;;
20721;SDS011;10522;52.198;9.890;2023-04-03T09:26:11;4.60;;;1.17;;
20721;SDS011;10522;52.198;9.890;2023-04-03T09:28:44;6.63;;;1.30;;
20721;SDS011;10522;52.198;9.890;2023-04-03T09:33:43;3.83;;;1.20;;
20721;SDS011;10522;52.198;9.890;2023-04-03T09:36:10;4.70;;;1.47;;
20721;SDS011;10522;52.198;9.890;2023-04-03T09:38:36;2.10;;;1.10;;
20721;SDS011;10522;52.198;9.890;2023-04-03T09:41:05;4.10;;;1.33;;
20721;SDS011;10522;52.198;9.890;2023-04-03T09:43:33;5.03;;;1.57;;
20721;SDS011;10522;52.198;9.890;2023-04-03T09:49:03;2.50;;;1.00;;
20721;SDS011;10522;52.198;9.890;2023-04-03T09:51:30;3.80;;;1.40;;
20721;SDS011;10522;52.198;9.890;2023-04-03T09:53:56;4.33;;;1.50;;
20721;SDS011;10522;52.198;9.890;2023-04-03T09:56:29;3.17;;;1.50;;
20721;SDS011;10522;52.198;9.890;2023-04-03T10:01:35;5.23;;;1.70;;
20721;SDS011;10522;52.198;9.890;2023-04-03T10:06:34;3.83;;;1.33;;
20721;SDS011;10522;52.198;9.890;2023-04-03T10:09:03;4.00;;;1.00;;
20721;SDS011;10522;52.198;9.890;2023-04-03T10:11:46;1.70;;;0.90;;
20721;SDS011;10522;52.198;9.890;2023-04-03T10:14:21;3.63;;;1.00;;
20721;SDS011;10522;52.198;9.890;2023-04-03T10:16:59;5.30;;;1.03;;
20721;SDS011;10522;52.198;9.890;2023-04-03T10:19:53;7.37;;;1.47;;
20721;SDS011;10522;52.198;9.890;2023-04-03T10:28:09;2.60;;;1.10;;
20721;SDS011;10522;52.198;9.890;2023-04-03T10:36:21;3.57;;;0.83;;
20721;SDS011;10522;52.198;9.890;2023-04-03T10:47:13;6.03;;;1.30;;
20721;SDS011;10522;52.198;9.890;2023-04-03T10:52:22;4.53;;;0.80;;
20721;SDS011;10522;52.198;9.890;2023-04-03T10:55:43;2.83;;;1.07;;
20721;SDS011;10522;52.198;9.890;2023-04-03T10:57:49;1.83;;;1.10;;
20721;SDS011;10522;52.198;9.890;2023-04-03T11:00:16;4.80;;;1.00;;
20721;SDS011;10522;52.198;9.890;2023-04-03T11:02:53;4.67;;;1.03;;
20721;SDS011;10522;52.198;9.890;2023-04-03T11:05:26;1.87;;;1.00;;
20721;SDS011;10522;52.198;9.890;2023-04-03T11:07:57;3.37;;;1.00;;
20721;SDS011;10522;52.198;9.890;2023-04-03T11:10:37;2.47;;;1.00;;
20721;SDS011;10522;52.198;9.890;2023-04-03T11:13:16;4.20;;;1.00;;
20721;SDS011;10522;52.198;9.890;2023-04-03T11:15:45;2.73;;;0.80;;
20721;SDS011;10522;52.198;9.890;2023-04-03T11:18:15;3.13;;;1.30;;
20721;SDS011;10522;52.198;9.890;2023-04-03T11:20:53;3.20;;;0.87;;
20721;SDS011;10522;52.198;9.890;2023-04-03T11:23:33;1.70;;;1.00;;
20721;SDS011;10522;52.198;9.890;2023-04-03T11:26:07;5.20;;;1.20;;
20721;SDS011;10522;52.198;9.890;2023-04-03T11:28:37;1.23;;;1.13;;
20721;SDS011;10522;52.198;9.890;2023-04-03T11:36:43;3.70;;;0.90;;
20721;SDS011;10522;52.198;9.890;2023-04-03T11:39:18;5.63;;;1.50;;
20721;SDS011;10522;52.198;9.890;2023-04-03T11:41:48;3.70;;;1.33;;
20721;SDS011;10522;52.198;9.890;2023-04-03T11:50:42;4.47;;;1.60;;
20721;SDS011;10522;52.198;9.890;2023-04-03T11:58:15;7.93;;;1.63;;
20721;SDS011;10522;52.198;9.890;2023-04-03T12:13:42;4.20;;;1.30;;
20721;SDS011;10522;52.198;9.890;2023-04-03T12:24:26;4.03;;;1.23;;
20721;SDS011;10522;52.198;9.890;2023-04-03T12:41:24;3.70;;;1.57;;
20721;SDS011;10522;52.198;9.890;2023-04-03T12:46:38;3.23;;;0.97;;
20721;SDS011;10522;52.198;9.890;2023-04-03T12:52:18;4.00;;;1.07;;
20721;SDS011;10522;52.198;9.890;2023-04-03T12:54:50;1.70;;;1.27;;
20721;SDS011;10522;52.198;9.890;2023-04-03T12:57:18;2.67;;;1.17;;
20721;SDS011;10522;52.198;9.890;2023-04-03T12:59:45;3.47;;;1.13;;
20721;SDS011;10522;52.198;9.890;2023-04-03T13:04:50;5.60;;;1.50;;
20721;SDS011;10522;52.198;9.890;2023-04-03T13:07:24;3.23;;;1.30;;
20721;SDS011;10522;52.198;9.890;2023-04-03T13:09:59;2.23;;;1.10;;
20721;SDS011;10522;52.198;9.890;2023-04-03T13:12:31;1.80;;;1.00;;
20721;SDS011;10522;52.198;9.890;2023-04-03T13:14:58;2.90;;;1.40;;
20721;SDS011;10522;52.198;9.890;2023-04-03T13:17:39;1.80;;;1.00;;
20721;SDS011;10522;52.198;9.890;2023-04-03T13:20:10;1.73;;;1.10;;
20721;SDS011;10522;52.198;9.890;2023-04-03T13:22:52;3.00;;;0.97;;
20721;SDS011;10522;52.198;9.890;2023-04-03T13:25:45;1.43;;;1.00;;
20721;SDS011;10522;52.198;9.890;2023-04-03T13:28:13;1.77;;;0.90;;
20721;SDS011;10522;52.198;9.890;2023-04-03T13:33:36;3.57;;;1.20;;
20721;SDS011;10522;52.198;9.890;2023-04-03T13:36:19;2.67;;;1.07;;
20721;SDS011;10522;52.198;9.890;2023-04-03T13:38:57;2.03;;;0.70;;
20721;SDS011;10522;52.198;9.890;2023-04-03T13:41:26;2.67;;;1.40;;
20721;SDS011;10522;52.198;9.890;2023-04-03T13:44:14;4.23;;;1.03;;
20721;SDS011;10522;52.198;9.890;2023-04-03T13:46:40;2.83;;;1.10;;
20721;SDS011;10522;52.198;9.890;2023-04-03T13:49:17;3.30;;;1.17;;
20721;SDS011;10522;52.198;9.890;2023-04-03T13:51:48;4.80;;;1.20;;
20721;SDS011;10522;52.198;9.890;2023-04-03T13:54:21;1.57;;;1.10;;
20721;SDS011;10522;52.198;9.890;2023-04-03T13:56:56;1.40;;;0.93;;
20721;SDS011;10522;52.198;9.890;2023-04-03T13:59:31;4.20;;;1.17;;
20721;SDS011;10522;52.198;9.890;2023-04-03T14:04:30;3.30;;;1.00;;
20721;SDS011;10522;52.198;9.890;2023-04-03T14:06:57;4.30;;;1.17;;
20721;SDS011;10522;52.198;9.890;2023-04-03T14:09:24;3.50;;;1.30;;
20721;SDS011;10522;52.198;9.890;2023-04-03T14:11:53;3.30;;;1.23;;
20721;SDS011;10522;52.198;9.890;2023-04-03T14:14:22;1.57;;;1.07;;
20721;SDS011;10522;52.198;9.890;2023-04-03T14:16:53;6.03;;;1.03;;
20721;SDS011;10522;52.198;9.890;2023-04-03T14:19:22;4.47;;;1.20;;
20721;SDS011;10522;52.198;9.890;2023-04-03T14:21:50;3.20;;;1.10;;
20721;SDS011;10522;52.198;9.890;2023-04-03T14:24:17;4.17;;;1.23;;
20721;SDS011;10522;52.198;9.890;2023-04-03T14:26:44;2.97;;;1.30;;
20721;SDS011;10522;52.198;9.890;2023-04-03T14:29:10;2.77;;;1.30;;
20721;SDS011;10522;52.198;9.890;2023-04-03T14:31:36;1.77;;;1.20;;
20721;SDS011;10522;52.198;9.890;2023-04-03T14:34:02;3.50;;;1.07;;
20721;SDS011;10522;52.198;9.890;2023-04-03T14:36:28;3.37;;;1.20;;
20721;SDS011;10522;52.198;9.890;2023-04-03T14:38:55;3.53;;;1.30;;
20721;SDS011;10522;52.198;9.890;2023-04-03T14:41:22;3.20;;;1.30;;
20721;SDS011;10522;52.198;9.890;2023-04-03T14:43:50;3.17;;;1.13;;
20721;SDS011;10522;52.198;9.890;2023-04-03T14:46:21;2.00;;;1.00;;
20721;SDS011;10522;52.198;9.890;2023-04-03T14:48:54;1.27;;;0.90;;
20721;SDS011;10522;52.198;9.890;2023-04-03T14:51:19;5.20;;;1.23;;
20721;SDS011;10522;52.198;9.890;2023-04-03T14:53:47;6.03;;;1.63;;
20721;SDS011;10522;52.198;9.890;2023-04-03T14:56:16;1.93;;;1.10;;
20721;SDS011;10522;52.198;9.890;2023-04-03T14:58:44;2.43;;;1.30;;
20721;SDS011;10522;52.198;9.890;2023-04-03T15:01:14;2.87;;;1.30;;
20721;SDS011;10522;52.198;9.890;2023-04-03T15:03:40;2.63;;;1.03;;
20721;SDS011;10522;52.198;9.890;2023-04-03T15:06:05;2.63;;;1.20;;
20721;SDS011;10522;52.198;9.890;2023-04-03T15:08:31;3.23;;;1.37;;
20721;SDS011;10522;52.198;9.890;2023-04-03T15:10:57;2.30;;;1.10;;
20721;SDS011;10522;52.198;9.890;2023-04-03T15:13:23;1.40;;;1.07;;
20721;SDS011;10522;52.198;9.890;2023-04-03T15:15:49;3.03;;;1.00;;
20721;SDS011;10522;52.198;9.890;2023-04-03T15:18:20;2.87;;;1.30;;
20721;SDS011;10522;52.198;9.890;2023-04-03T15:20:51;2.53;;;1.43;;
20721;SDS011;10522;52.198;9.890;2023-04-03T15:23:17;3.60;;;1.50;;
20721;SDS011;10522;52.198;9.890;2023-04-03T15:25:44;1.73;;;1.07;;
20721;SDS011;10522;52.198;9.890;2023-04-03T15:28:22;3.87;;;1.40;;
20721;SDS011;10522;52.198;9.890;2023-04-03T15:30:48;1.60;;;1.10;;
20721;SDS011;10522;52.198;9.890;2023-04-03T15:33:15;2.07;;;1.37;;
20721;SDS011;10522;52.198;9.890;2023-04-03T15:35:41;3.97;;;1.17;;
20721;SDS011;10522;52.198;9.890;2023-04-03T15:38:07;2.47;;;1.17;;
20721;SDS011;10522;52.198;9.890;2023-04-03T15:40:33;2.13;;;1.43;;
20721;SDS011;10522;52.198;9.890;2023-04-03T15:42:58;3.23;;;1.37;;
20721;SDS011;10522;52.198;9.890;2023-04-03T15:45:24;3.90;;;1.30;;
20721;SDS011;10522;52.198;9.890;2023-04-03T15:47:50;2.37;;;1.07;;
20721;SDS011;10522;52.198;9.890;2023-04-03T15:50:16;2.90;;;1.30;;
20721;SDS011;10522;52.198;9.890;2023-04-03T15:52:42;4.73;;;1.20;;
20721;SDS011;10522;52.198;9.890;2023-04-03T15:55:08;2.97;;;1.27;;
20721;SDS011;10522;52.198;9.890;2023-04-03T16:00:09;5.20;;;1.20;;
20721;SDS011;10522;52.198;9.890;2023-04-03T16:02:36;1.87;;;1.10;;
20721;SDS011;10522;52.198;9.890;2023-04-03T16:05:01;1.23;;;1.07;;
20721;SDS011;10522;52.198;9.890;2023-04-03T16:07:27;5.00;;;1.23;;
20721;SDS011;10522;52.198;9.890;2023-04-03T16:09:53;2.13;;;1.23;;
20721;SDS011;10522;52.198;9.890;2023-04-03T16:12:19;2.63;;;1.30;;
20721;SDS011;10522;52.198;9.890;2023-04-03T16:14:45;2.90;;;1.53;;
20721;SDS011;10522;52.198;9.890;2023-04-03T16:17:10;3.73;;;1.13;;
20721;SDS011;10522;52.198;9.890;2023-04-03T16:19:36;1.47;;;1.10;;
20721;SDS011;10522;52.198;9.890;2023-04-03T16:22:01;6.57;;;1.40;;
20721;SDS011;10522;52.198;9.890;2023-04-03T16:24:27;2.37;;;1.07;;
20721;SDS011;10522;52.198;9.890;2023-04-03T16:26:53;3.87;;;1.60;;
20721;SDS011;10522;52.198;9.890;2023-04-03T16:29:19;2.43;;;1.20;;
20721;SDS011;10522;52.198;9.890;2023-04-03T16:31:45;3.27;;;1.10;;
20721;SDS011;10522;52.198;9.890;2023-04-03T16:34:11;3.63;;;1.03;;
20721;SDS011;10522;52.198;9.890;2023-04-03T16:36:37;3.33;;;1.30;;
20721;SDS011;10522;52.198;9.890;2023-04-03T16:39:03;8.87;;;3.93;;
20721;SDS011;10522;52.198;9.890;2023-04-03T16:41:28;4.00;;;1.37;;
20721;SDS011;10522;52.198;9.890;2023-04-03T16:43:54;1.17;;;1.07;;
20721;SDS011;10522;52.198;9.890;2023-04-03T16:46:20;4.00;;;1.40;;
20721;SDS011;10522;52.198;9.890;2023-04-03T16:48:45;3.77;;;1.30;;